Terminal Aerodrome Forecast
Issued by NWS

Home | Current Version | Previous Version | Text Only | Print | Product List | Glossary On
Versions: 1 2 3 4 5 6 7 8 9 10 11 12 13 14 15 16 17 18 19 20 21 22 23 24 25 26 27 28 29 30 31 32 33
488
FTUS43 KABR 161127
TAFMBG
TAF
KMBG 161127Z 1612/1712 33009KT P6SM BKN015
     FM161500 34012KT P6SM BKN015
     FM161700 35013G21KT P6SM BKN035
     FM162100 36013KT P6SM SCT120
     FM170200 VRB05KT P6SM FEW250=

USA.gov is the U.S. government's official web portal to all federal, state and local government web resources and services.